Time;durP1;ratioP1;P1;durP2;ratioP2;P2;SDS_P1;SDS_P2;PMS_P1;PMS_P2;Temp;Humidity;BMP_temperature;BMP_pressure;BME280_temperature;BME280_humidity;BME280_pressure;Samples;Min_cycle;Max_cycle;Signal;HPM_P1;HPM_P2
2022/07/01 00:00:03;;;;;;;5.93;1.90;;;;;;;10.28;100.00;100846.50;4989418;28;20044;-76
2022/07/01 00:02:29;;;;;;;3.38;1.98;;;;;;;10.14;100.00;100828.38;4990110;28;20252;-76
2022/07/01 00:04:54;;;;;;;4.68;2.30;;;;;;;10.22;100.00;100855.22;5003085;28;20467;-76
2022/07/01 00:07:20;;;;;;;6.43;2.40;;;;;;;10.18;100.00;100851.19;5008971;28;20033;-78
2022/07/01 00:09:45;;;;;;;7.97;2.40;;;;;;;10.07;100.00;100838.94;5008485;28;20025;-78
2022/07/01 00:12:11;;;;;;;4.75;2.10;;;;;;;10.16;100.00;100863.97;4988295;28;20382;-76
2022/07/01 00:14:37;;;;;;;6.18;2.33;;;;;;;10.12;100.00;100858.09;5009631;28;20037;-77
2022/07/01 00:17:03;;;;;;;5.75;2.20;;;;;;;10.07;100.00;100855.06;5001670;28;20061;-76
2022/07/01 00:19:28;;;;;;;5.95;2.42;;;;;;;10.05;100.00;100864.31;5007499;28;20033;-76
2022/07/01 00:21:54;;;;;;;7.47;2.33;;;;;;;9.99;100.00;100855.09;5003537;28;20136;-76
2022/07/01 00:24:20;;;;;;;4.28;2.15;;;;;;;9.96;100.00;100860.81;5004446;28;20140;-77
2022/07/01 00:26:52;;;;;;;8.32;2.50;;;;;;;9.93;100.00;100863.84;5001677;28;20041;-77
2022/07/01 00:29:17;;;;;;;5.13;2.50;;;;;;;9.83;100.00;100852.41;5004248;28;20038;-76
2022/07/01 00:31:43;;;;;;;5.63;2.33;;;;;;;9.76;100.00;100854.09;5051012;28;20032;-76
2022/07/01 00:34:08;;;;;;;4.60;1.88;;;;;;;9.57;100.00;100831.94;5010688;28;20022;-76
2022/07/01 00:36:34;;;;;;;7.65;2.53;;;;;;;9.54;100.00;100843.00;5028721;28;20109;-76
2022/07/01 00:39:00;;;;;;;5.57;2.30;;;;;;;9.45;100.00;100852.09;4990277;28;20033;-76
2022/07/01 00:41:26;;;;;;;5.50;2.53;;;;;;;9.33;100.00;100842.66;5011317;28;20069;-76
2022/07/01 00:43:52;;;;;;;3.88;2.28;;;;;;;9.23;100.00;100845.47;5011718;28;20029;-76
2022/07/01 00:46:18;;;;;;;6.13;2.28;;;;;;;9.10;100.00;100839.75;5013058;28;20494;-76
2022/07/01 00:48:44;;;;;;;6.70;2.92;;;;;;;9.02;100.00;100851.31;4993430;28;20065;-76
2022/07/01 00:51:10;;;;;;;4.30;1.83;;;;;;;8.94;100.00;100857.47;4992550;28;20471;-75
2022/07/01 00:53:36;;;;;;;8.88;2.08;;;;;;;8.73;100.00;100849.88;4992751;28;20125;-75
2022/07/01 00:56:02;;;;;;;4.57;2.00;;;;;;;8.57;100.00;100855.16;5005188;28;20079;-76
2022/07/01 00:58:29;;;;;;;9.27;2.55;;;;;;;8.55;100.00;100855.34;5008042;28;20040;-76
2022/07/01 01:00:56;;;;;;;4.00;2.00;;;;;;;8.58;100.00;100854.19;4992360;28;20092;-76
2022/07/01 01:03:21;;;;;;;6.03;2.25;;;;;;;8.60;100.00;100870.94;5029915;28;20309;-76
2022/07/01 01:05:48;;;;;;;14.48;2.85;;;;;;;8.53;100.00;100861.84;4992170;28;20060;-76
2022/07/01 01:08:15;;;;;;;6.25;2.33;;;;;;;8.54;100.00;100855.47;4988094;28;20038;-76
2022/07/01 01:10:41;;;;;;;5.35;2.35;;;;;;;8.52;100.00;100862.84;5008399;28;20462;-77
2022/07/01 01:13:08;;;;;;;5.78;2.47;;;;;;;8.50;100.00;100862.19;5010774;28;20051;-76
2022/07/01 01:15:34;;;;;;;7.93;2.58;;;;;;;8.40;100.00;100853.41;5010782;28;20029;-76
2022/07/01 01:17:59;;;;;;;5.35;2.08;;;;;;;8.41;100.00;100860.44;5028093;28;20044;-76
2022/07/01 01:20:25;;;;;;;8.02;2.75;;;;;;;8.35;100.00;100857.38;5024061;28;20121;-77
2022/07/01 01:22:50;;;;;;;6.25;2.20;;;;;;;8.17;100.00;100840.50;5012817;28;20037;-76
2022/07/01 01:25:16;;;;;;;5.22;2.58;;;;;;;8.23;100.00;100853.28;5004966;28;20041;-77
2022/07/01 01:27:42;;;;;;;7.85;2.50;;;;;;;8.03;100.00;100825.03;5015378;28;20041;-78
2022/07/01 01:30:11;;;;;;;7.15;2.00;;;;;;;8.14;100.00;100859.59;5006366;28;20141;-76
2022/07/01 01:32:37;;;;;;;9.05;2.42;;;;;;;8.13;100.00;100849.88;4985299;28;20029;-76
2022/07/01 01:35:03;;;;;;;8.55;2.33;;;;;;;8.16;100.00;100865.63;5030790;28;20033;-76
2022/07/01 01:37:29;;;;;;;5.20;2.47;;;;;;;8.19;100.00;100862.63;5021419;28;20103;-76
2022/07/01 01:39:55;;;;;;;6.18;2.17;;;;;;;8.18;100.00;100857.41;5020044;28;20464;-76
2022/07/01 01:42:21;;;;;;;6.10;2.60;;;;;;;8.32;100.00;100879.13;4992106;28;20235;-75
2022/07/01 01:44:47;;;;;;;7.40;1.92;;;;;;;8.34;100.00;100869.09;5023766;28;20152;-76
2022/07/01 01:47:12;;;;;;;5.05;2.20;;;;;;;8.37;100.00;100860.72;5019601;28;20034;-76
2022/07/01 01:49:38;;;;;;;5.90;2.90;;;;;;;8.47;100.00;100849.94;5017886;28;20048;-76
2022/07/01 01:52:04;;;;;;;5.85;2.25;;;;;;;8.57;100.00;100847.97;5018965;28;20410;-76
2022/07/01 01:54:30;;;;;;;5.85;2.20;;;;;;;8.66;100.00;100846.16;4989175;28;20044;-76
2022/07/01 01:56:55;;;;;;;6.32;2.42;;;;;;;8.68;100.00;100841.50;5006554;28;20433;-76
2022/07/01 01:59:21;;;;;;;6.13;2.28;;;;;;;8.68;100.00;100846.84;5003012;28;20734;-77
2022/07/01 02:01:47;;;;;;;5.40;2.13;;;;;;;8.71;100.00;100846.53;4988658;28;20033;-76
2022/07/01 02:04:12;;;;;;;8.70;2.70;;;;;;;8.69;100.00;100848.53;5019892;28;20045;-76
2022/07/01 02:06:40;;;;;;;8.68;2.70;;;;;;;8.70;100.00;100844.00;4996412;28;20048;-76
2022/07/01 02:09:06;;;;;;;7.75;2.60;;;;;;;8.74;100.00;100846.19;4983891;28;20049;-76
2022/07/01 02:11:32;;;;;;;7.30;2.20;;;;;;;8.72;100.00;100834.78;5024254;28;20511;-76
2022/07/01 02:13:58;;;;;;;4.45;2.50;;;;;;;8.73;100.00;100832.94;5021431;28;20111;-76
2022/07/01 02:16:23;;;;;;;4.88;2.03;;;;;;;8.77;100.00;100834.31;5023024;28;20525;-76
2022/07/01 02:18:49;;;;;;;6.03;2.22;;;;;;;8.87;100.00;100831.50;4989543;28;20120;-77
2022/07/01 02:21:14;;;;;;;7.03;2.25;;;;;;;8.80;100.00;100825.94;5008464;28;20026;-78
2022/07/01 02:23:40;;;;;;;5.70;2.65;;;;;;;8.94;100.00;100843.25;5001476;28;20090;-78
2022/07/01 02:26:06;;;;;;;4.97;2.03;;;;;;;8.88;100.00;100838.53;5019224;28;20025;-77
2022/07/01 02:28:31;;;;;;;5.93;2.08;;;;;;;8.87;100.00;100836.88;5023412;28;20045;-77
2022/07/01 02:30:57;;;;;;;5.15;1.95;;;;;;;8.82;100.00;100834.66;5018978;28;20045;-76
2022/07/01 02:33:22;;;;;;;7.10;2.28;;;;;;;8.85;100.00;100834.34;5001819;28;20406;-78
2022/07/01 02:35:48;;;;;;;4.53;2.10;;;;;;;8.85;100.00;100828.13;5022461;28;20030;-77
2022/07/01 02:38:17;;;;;;;8.07;2.20;;;;;;;8.82;100.00;100818.56;5019773;28;20029;-78
2022/07/01 02:40:43;;;;;;;6.57;2.30;;;;;;;8.87;100.00;100823.47;5033202;28;20056;-77
2022/07/01 02:43:09;;;;;;;6.35;1.88;;;;;;;8.84;100.00;100821.06;5010241;28;20038;-77
2022/07/01 02:45:34;;;;;;;4.55;2.40;;;;;;;8.86;100.00;100829.81;4986374;28;20030;-77
2022/07/01 02:48:01;;;;;;;7.15;2.13;;;;;;;8.80;100.00;100821.41;5006043;28;20417;-77
2022/07/01 02:50:27;;;;;;;6.10;2.40;;;;;;;8.82;100.00;100820.44;5009236;28;20298;-77
2022/07/01 02:52:53;;;;;;;7.45;2.15;;;;;;;8.77;100.00;100827.09;4998619;28;20029;-77
2022/07/01 02:55:18;;;;;;;8.00;2.08;;;;;;;8.74;100.00;100824.75;5006888;28;20066;-77
2022/07/01 02:57:44;;;;;;;8.82;2.13;;;;;;;8.76;100.00;100830.81;5002855;28;20041;-76
2022/07/01 03:00:12;;;;;;;3.80;1.80;;;;;;;8.84;100.00;100834.50;4987750;28;20076;-77
2022/07/01 03:02:38;;;;;;;5.00;2.13;;;;;;;8.86;100.00;100829.81;5004845;28;20116;-77
2022/07/01 03:05:04;;;;;;;7.38;2.65;;;;;;;8.89;100.00;100832.16;4983724;28;20593;-77
2022/07/01 03:07:30;;;;;;;7.18;2.20;;;;;;;8.84;100.00;100816.59;5006866;28;20034;-77
2022/07/01 03:09:56;;;;;;;4.97;1.73;;;;;;;8.92;100.00;100826.50;4992535;28;20095;-78
2022/07/01 03:12:24;;;;;;;7.22;2.22;;;;;;;9.00;100.00;100838.06;5001311;28;20073;-78
2022/07/01 03:14:56;;;;;;;5.03;2.70;;;;;;;9.10;100.00;100837.06;4989905;28;20057;-77
2022/07/01 03:17:23;;;;;;;6.53;2.35;;;;;;;9.08;100.00;100826.53;5009149;28;20116;-77
2022/07/01 03:19:49;;;;;;;5.68;2.65;;;;;;;9.17;100.00;100833.56;5023663;28;20058;-77
2022/07/01 03:22:15;;;;;;;6.15;2.20;;;;;;;9.24;100.00;100837.28;5023141;28;20401;-77
2022/07/01 03:24:40;;;;;;;7.15;2.03;;;;;;;9.27;100.00;100829.91;4998343;28;20050;-77
2022/07/01 03:27:06;;;;;;;7.47;1.92;;;;;;;9.29;100.00;100838.63;5012908;28;20227;-78
2022/07/01 03:29:34;;;;;;;7.10;2.53;;;;;;;9.23;100.00;100826.72;4997510;28;20479;-78
2022/07/01 03:31:59;;;;;;;9.63;3.17;;;;;;;9.36;100.00;100827.06;4997058;28;20065;-78
2022/07/01 03:34:25;;;;;;;7.25;2.63;;;;;;;9.44;100.00;100835.13;5004949;28;20376;-77
2022/07/01 03:36:50;;;;;;;4.82;2.60;;;;;;;9.40;100.00;100836.47;5008580;28;20037;-77
2022/07/01 03:39:19;;;;;;;11.25;3.15;;;;;;;9.41;100.00;100842.66;5014504;28;20041;-77
2022/07/01 03:41:45;;;;;;;8.80;2.80;;;;;;;9.41;100.00;100837.31;5021947;28;20037;-77
2022/07/01 03:44:10;;;;;;;11.27;3.72;;;;;;;9.41;100.00;100845.34;5003008;28;20038;-77
2022/07/01 03:46:37;;;;;;;7.30;3.03;;;;;;;9.39;100.00;100836.63;4999963;28;20532;-77
2022/07/01 03:49:04;;;;;;;7.95;3.42;;;;;;;9.31;100.00;100839.28;5003342;28;20038;-76
2022/07/01 03:51:33;;;;;;;8.88;3.03;;;;;;;9.35;100.00;100836.13;5004102;28;20033;-77
2022/07/01 03:56:42;;;;;;;9.90;3.65;;;;;;;9.38;100.00;100841.16;5002836;28;20402;-76
2022/07/01 03:59:08;;;;;;;6.55;2.90;;;;;;;9.39;100.00;100842.00;5014303;28;20081;-76
2022/07/01 04:01:34;;;;;;;6.03;2.63;;;;;;;9.39;100.00;100842.84;5015246;28;20040;-77
2022/07/01 04:03:59;;;;;;;8.18;3.03;;;;;;;9.40;100.00;100835.63;4994149;28;20039;-77
2022/07/01 04:06:25;;;;;;;7.00;2.78;;;;;;;9.36;100.00;100837.78;5006858;28;20038;-78
2022/07/01 04:08:50;;;;;;;7.50;3.05;;;;;;;9.38;100.00;100834.97;5022089;28;20029;-77
2022/07/01 04:11:16;;;;;;;9.80;2.85;;;;;;;9.35;100.00;100836.13;5017128;28;20076;-77
2022/07/01 04:13:49;;;;;;;8.93;2.80;;;;;;;9.35;100.00;100832.59;5012346;28;20055;-76
2022/07/01 04:16:16;;;;;;;8.70;3.05;;;;;;;9.29;100.00;100823.38;4990390;28;20053;-76
2022/07/01 04:18:42;;;;;;;7.88;2.95;;;;;;;9.23;100.00;100827.56;5001599;28;20056;-78
2022/07/01 04:23:52;;;;;;;8.27;2.88;;;;;;;9.14;100.00;100836.59;5015673;28;20499;-76
2022/07/01 04:26:18;;;;;;;7.72;3.03;;;;;;;8.93;100.00;100814.75;5018618;28;20030;-77
2022/07/01 04:28:43;;;;;;;7.93;3.45;;;;;;;8.96;100.00;100822.47;5009428;28;20037;-76
2022/07/01 04:31:09;;;;;;;13.27;3.20;;;;;;;8.94;100.00;100832.50;5001768;28;20049;-77
2022/07/01 04:33:34;;;;;;;9.43;3.33;;;;;;;8.88;100.00;100825.13;5016765;28;20040;-77
2022/07/01 04:36:00;;;;;;;9.55;3.35;;;;;;;8.85;100.00;100820.09;5006609;28;20573;-77
2022/07/01 04:38:26;;;;;;;10.27;3.83;;;;;;;8.87;100.00;100831.50;4981912;28;20040;-78
2022/07/01 04:43:36;;;;;;;7.38;3.00;;;;;;;8.91;100.00;100830.16;5006632;28;20036;-78
2022/07/01 04:46:01;;;;;;;6.72;2.85;;;;;;;9.04;100.00;100835.91;5002578;28;20030;-77
2022/07/01 04:48:27;;;;;;;11.75;3.45;;;;;;;9.13;100.00;100831.38;4989272;28;20439;-78
2022/07/01 04:50:52;;;;;;;7.82;3.22;;;;;;;9.02;100.00;100808.38;5005545;28;20034;-77
2022/07/01 04:53:18;;;;;;;8.93;3.05;;;;;;;9.23;100.00;100834.75;5025774;28;20030;-76
2022/07/01 04:55:43;;;;;;;9.32;3.15;;;;;;;9.27;100.00;100821.88;5001845;28;20500;-76
2022/07/01 04:58:09;;;;;;;8.55;2.83;;;;;;;9.36;100.00;100819.00;5014012;28;20025;-78
2022/07/01 05:00:35;;;;;;;8.38;2.80;;;;;;;9.52;100.00;100833.44;5016009;28;20435;-77
2022/07/01 05:03:00;;;;;;;8.27;2.90;;;;;;;9.59;100.00;100837.16;4990607;28;20037;-77
2022/07/01 05:05:26;;;;;;;13.05;3.53;;;;;;;9.54;100.00;100808.13;5017109;28;20055;-77
2022/07/01 05:07:51;;;;;;;8.43;3.25;;;;;;;9.69;100.00;100835.97;5026640;28;20384;-78
2022/07/01 05:10:17;;;;;;;10.27;2.97;;;;;;;9.71;100.00;100840.31;5005218;28;20036;-76
2022/07/01 05:12:43;;;;;;;9.73;3.30;;;;;;;9.68;100.00;100828.94;5027741;28;20617;-76
2022/07/01 05:15:09;;;;;;;9.98;3.22;;;;;;;9.73;100.00;100835.63;5018107;28;20037;-77
2022/07/01 05:23:03;;;;;;;7.88;3.42;;;;;;;9.68;100.00;100823.56;5000451;28;20030;-77
2022/07/01 05:25:28;;;;;;;6.05;3.10;;;;;;;9.68;100.00;100815.53;5022058;28;20041;-76
2022/07/01 05:27:54;;;;;;;6.30;2.50;;;;;;;9.78;100.00;100825.22;5007568;28;20124;-76
2022/07/01 05:30:23;;;;;;;10.38;2.95;;;;;;;9.77;100.00;100791.34;5020419;28;20113;-77
2022/07/01 05:32:48;;;;;;;9.50;2.70;;;;;;;9.93;100.00;100787.78;5004581;28;20032;-76
2022/07/01 05:35:14;;;;;;;8.02;2.80;;;;;;;10.04;100.00;100799.00;5026458;28;20046;-76
2022/07/01 05:37:40;;;;;;;7.50;2.70;;;;;;;10.16;100.00;100807.56;5008045;28;20065;-75
2022/07/01 05:40:07;;;;;;;6.70;2.63;;;;;;;10.24;100.00;100801.28;4991827;28;20467;-76
2022/07/01 05:42:33;;;;;;;8.32;2.55;;;;;;;10.31;100.00;100797.78;5019179;28;20038;-76
2022/07/01 05:44:58;;;;;;;7.03;2.78;;;;;;;10.44;100.00;100796.41;5002114;28;20026;-76
2022/07/01 05:47:24;;;;;;;5.88;2.60;;;;;;;10.51;100.00;100808.97;5004478;28;20030;-76
2022/07/01 05:49:49;;;;;;;6.20;2.40;;;;;;;10.55;100.00;100790.63;5020590;28;20077;-76
2022/07/01 05:52:15;;;;;;;4.78;2.10;;;;;;;10.56;100.00;100795.84;5010522;28;20033;-76
2022/07/01 05:54:41;;;;;;;4.45;2.25;;;;;;;10.54;100.00;100802.41;5017056;28;20471;-76
2022/07/01 05:57:06;;;;;;;7.95;2.20;;;;;;;10.50;100.00;100796.53;5002864;28;20064;-76
2022/07/01 05:59:32;;;;;;;5.47;2.47;;;;;;;10.57;100.00;100797.50;4993217;28;20052;-76
2022/07/01 06:01:58;;;;;;;4.78;2.00;;;;;;;10.63;100.00;100798.66;5018441;28;20582;-76
2022/07/01 06:04:23;;;;;;;6.13;1.73;;;;;;;10.60;100.00;100790.13;5029253;28;20036;-77
2022/07/01 06:06:49;;;;;;;5.97;2.00;;;;;;;10.62;100.00;100793.47;5016230;28;20459;-77
2022/07/01 06:09:14;;;;;;;4.47;1.70;;;;;;;10.69;100.00;100789.91;5004505;28;20034;-76
2022/07/01 06:11:40;;;;;;;3.53;2.20;;;;;;;10.71;100.00;100787.84;5023753;28;20537;-76
2022/07/01 06:14:05;;;;;;;6.18;1.92;;;;;;;10.55;100.00;100748.44;4989578;28;20041;-77
2022/07/01 06:16:31;;;;;;;6.07;1.95;;;;;;;11.02;100.00;100791.56;5000664;28;20034;-76
2022/07/01 06:19:20;;;;;;;5.55;1.90;;;;;;;11.28;100.00;100785.84;5030998;28;20053;-77
2022/07/01 06:21:46;;;;;;;4.22;2.20;;;;;;;11.51;100.00;100777.72;5027032;28;20322;-78
2022/07/01 06:24:13;;;;;;;3.42;1.92;;;;;;;11.98;100.00;100779.34;5019021;28;20075;-76
2022/07/01 06:26:39;;;;;;;5.35;2.30;;;;;;;12.48;100.00;100785.84;5018133;28;20475;-78
2022/07/01 06:29:07;;;;;;;3.33;1.95;;;;;;;12.69;100.00;100780.53;5008437;28;20517;-77
2022/07/01 06:31:33;;;;;;;4.95;1.83;;;;;;;12.79;100.00;100776.69;5003995;28;20038;-75
2022/07/01 06:33:59;;;;;;;4.40;1.60;;;;;;;12.77;100.00;100777.69;5018677;28;20028;-75
2022/07/01 06:36:25;;;;;;;3.15;1.40;;;;;;;12.70;100.00;100778.66;5009989;28;20045;-75
2022/07/01 06:38:51;;;;;;;3.75;1.70;;;;;;;12.68;100.00;100783.41;5001014;28;20106;-77
2022/07/01 06:41:26;;;;;;;3.53;2.00;;;;;;;12.67;100.00;100782.56;5003269;28;20098;-76
2022/07/01 06:43:58;;;;;;;3.30;1.73;;;;;;;12.63;100.00;100783.97;5018626;28;20037;-76
2022/07/01 06:46:24;;;;;;;6.47;2.45;;;;;;;12.70;100.00;100776.81;5039838;28;20427;-75
2022/07/01 06:48:50;;;;;;;3.42;1.75;;;;;;;12.74;100.00;100758.38;5007290;28;20043;-75
2022/07/01 06:51:16;;;;;;;3.38;1.75;;;;;;;13.02;100.00;100779.22;4991161;28;20045;-75
2022/07/01 06:53:44;;;;;;;3.15;1.50;;;;;;;13.15;100.00;100777.50;5006416;28;20398;-76
2022/07/01 06:56:11;;;;;;;2.35;1.48;;;;;;;13.10;100.00;100782.66;5023816;28;20030;-76
2022/07/01 06:58:37;;;;;;;5.45;1.40;;;;;;;12.95;100.00;100776.47;4994805;28;20034;-76
2022/07/01 07:01:03;;;;;;;1.90;1.30;;;;;;;12.85;100.00;100776.75;5027933;28;20103;-77
2022/07/01 07:03:29;;;;;;;2.30;1.33;;;;;;;12.81;100.00;100771.91;5013273;28;20037;-79
2022/07/01 07:05:55;;;;;;;5.18;1.55;;;;;;;12.79;100.00;100765.91;5009580;28;20048;-76
2022/07/01 07:08:20;;;;;;;4.13;1.35;;;;;;;12.85;100.00;100768.66;5019580;28;20021;-77
2022/07/01 07:10:46;;;;;;;5.78;1.73;;;;;;;12.85;100.00;100763.25;4984016;28;20022;-76
2022/07/01 07:13:12;;;;;;;3.22;1.35;;;;;;;13.02;100.00;100766.59;5004070;28;20386;-76
2022/07/01 07:15:41;;;;;;;4.53;1.98;;;;;;;13.23;100.00;100754.09;5022935;28;20025;-77
2022/07/01 07:18:07;;;;;;;3.90;1.70;;;;;;;13.61;100.00;100760.09;5021080;28;20033;-77
2022/07/01 07:20:34;;;;;;;2.78;1.60;;;;;;;13.77;100.00;100745.44;4986386;28;20152;-76
2022/07/01 07:22:59;;;;;;;3.15;1.20;;;;;;;13.88;100.00;100755.69;5020195;28;20467;-77
2022/07/01 07:25:26;;;;;;;2.83;1.23;;;;;;;13.89;100.00;100751.13;5037390;28;20106;-76
2022/07/01 07:27:51;;;;;;;1.83;1.15;;;;;;;13.81;98.71;100754.81;4994139;28;20045;-77
2022/07/01 07:30:17;;;;;;;2.78;1.10;;;;;;;13.61;98.23;100755.50;5016914;28;20033;-77
2022/07/01 07:32:44;;;;;;;4.80;1.45;;;;;;;13.53;98.57;100747.56;5023125;28;20033;-76
2022/07/01 07:35:10;;;;;;;3.35;1.10;;;;;;;13.73;96.30;100755.78;5022941;28;20033;-76
2022/07/01 07:37:36;;;;;;;2.50;1.20;;;;;;;13.96;95.15;100738.50;4977727;28;21181;-76
2022/07/01 07:40:03;;;;;;;2.92;1.40;;;;;;;14.32;92.45;100719.34;5005703;28;20534;-78
2022/07/01 07:42:29;;;;;;;3.58;1.40;;;;;;;15.01;89.50;100737.28;5009965;28;20104;-77
2022/07/01 07:44:54;;;;;;;2.72;1.20;;;;;;;15.48;85.45;100716.50;4986322;28;20438;-77
2022/07/01 07:47:20;;;;;;;3.53;1.20;;;;;;;15.97;82.64;100738.78;5017998;28;20041;-77
2022/07/01 07:49:46;;;;;;;2.17;1.30;;;;;;;16.33;78.15;100732.00;5005497;28;20087;-77
2022/07/01 07:52:12;;;;;;;2.65;1.25;;;;;;;16.65;74.29;100716.63;5005967;28;20459;-76
2022/07/01 07:54:38;;;;;;;2.55;1.50;;;;;;;16.62;72.01;100689.91;4999822;28;20037;-76
2022/07/01 07:57:05;;;;;;;2.67;1.10;;;;;;;16.90;69.95;100728.38;5018770;28;20121;-77
2022/07/01 07:59:30;;;;;;;2.13;1.33;;;;;;;16.98;70.37;100735.44;5001579;28;20845;-74
2022/07/01 08:01:56;;;;;;;2.55;1.38;;;;;;;16.91;68.06;100730.06;5006570;28;20041;-77
2022/07/01 08:04:22;;;;;;;4.13;1.13;;;;;;;16.56;68.14;100720.63;5020397;28;20037;-79
2022/07/01 08:06:47;;;;;;;2.95;0.98;;;;;;;16.64;67.40;100718.47;5020806;28;20048;-76
2022/07/01 08:09:13;;;;;;;2.25;1.05;;;;;;;18.28;61.45;100715.69;5012627;28;20036;-77
2022/07/01 08:11:39;;;;;;;2.20;1.20;;;;;;;20.64;52.87;100717.69;5001740;28;20034;-77
2022/07/01 08:14:04;;;;;;;3.95;1.30;;;;;;;22.74;49.33;100718.16;5023047;28;20045;-77
2022/07/01 08:16:30;;;;;;;1.88;1.30;;;;;;;23.12;46.81;100727.31;5024328;28;20048;-75
2022/07/01 08:18:56;;;;;;;2.72;1.30;;;;;;;24.98;40.48;100717.09;5007889;28;20048;-75
2022/07/01 08:21:22;;;;;;;1.52;1.15;;;;;;;24.90;38.96;100707.50;5021754;28;20026;-75
2022/07/01 08:23:47;;;;;;;1.58;1.30;;;;;;;23.65;41.86;100713.75;5012741;28;20551;-75
2022/07/01 08:26:15;;;;;;;2.45;1.40;;;;;;;24.87;39.45;100705.28;5021584;28;20085;-75
2022/07/01 08:28:41;;;;;;;2.10;1.33;;;;;;;24.07;39.46;100711.03;5004737;28;20094;-76
2022/07/01 08:31:07;;;;;;;2.17;1.00;;;;;;;24.20;39.03;100693.22;5022425;28;20467;-75
2022/07/01 08:33:32;;;;;;;1.38;0.93;;;;;;;23.70;40.40;100695.41;5011348;28;20033;-75
2022/07/01 08:35:58;;;;;;;3.35;1.10;;;;;;;21.65;46.63;100702.50;4988277;28;20045;-76
2022/07/01 08:38:32;;;;;;;1.30;0.98;;;;;;;19.19;55.43;100699.38;5017432;28;20084;-75
2022/07/01 08:40:58;;;;;;;2.38;1.35;;;;;;;17.45;62.59;100706.06;4985505;28;20025;-78
2022/07/01 08:43:24;;;;;;;2.22;1.00;;;;;;;16.46;68.12;100700.22;5008086;28;20506;-78
2022/07/01 08:45:51;;;;;;;2.63;1.20;;;;;;;15.91;71.68;100696.25;5009773;28;20034;-78
2022/07/01 08:48:16;;;;;;;2.20;1.30;;;;;;;15.46;75.43;100693.38;4990163;28;21353;-79
2022/07/01 08:50:42;;;;;;;2.78;1.30;;;;;;;15.13;76.97;100683.34;5022505;28;20121;-79
2022/07/01 08:53:09;;;;;;;3.10;1.33;;;;;;;14.98;78.44;100682.69;4991799;28;20057;-80
2022/07/01 08:56:40;;;;;;;2.42;1.60;;;;;;;15.12;80.35;100673.56;5039971;28;20120;-79
2022/07/01 08:58:23;;;;;;;1.80;1.17;;;;;;;15.37;78.43;100674.63;5015811;28;20444;-80
2022/07/01 09:00:48;;;;;;;3.63;1.23;;;;;;;15.58;76.31;100670.81;4997419;28;20029;-81
2022/07/01 09:03:14;;;;;;;2.17;1.50;;;;;;;15.74;75.03;100674.16;5029090;28;20095;-81
2022/07/01 09:05:47;;;;;;;3.17;1.45;;;;;;;15.96;75.48;100677.47;5014914;28;20406;-79
2022/07/01 09:08:15;;;;;;;;;;;;;;;16.05;74.47;100678.88;5026262;28;20033;-78
2022/07/01 09:10:41;;;;;;;2.55;1.00;;;;;;;16.03;74.40;100676.34;5025422;28;19917;-80
2022/07/01 09:13:09;;;;;;;2.33;1.55;;;;;;;15.79;75.05;100685.19;4997051;28;20036;-80
2022/07/01 09:15:36;;;;;;;4.43;2.60;;;;;;;15.57;75.68;100679.16;5012047;28;20407;-81
2022/07/01 09:18:12;;;;;;;1.50;1.00;;;;;;;15.18;74.17;100662.72;5014831;28;20030;-79
2022/07/01 09:20:47;;;;;;;2.08;1.27;;;;;;;14.90;75.90;100670.22;5031274;28;20463;-80
2022/07/01 09:23:18;;;;;;;5.15;1.60;;;;;;;14.73;75.88;100669.75;5011556;28;20033;-80
2022/07/01 09:25:48;;;;;;;3.03;0.95;;;;;;;14.64;75.31;100662.88;4997134;28;20481;-78
2022/07/01 09:28:17;;;;;;;2.72;1.10;;;;;;;14.84;74.82;100673.72;4990591;28;20567;-79
2022/07/01 09:30:48;;;;;;;0.93;0.80;;;;;;;14.97;74.38;100668.34;4993463;28;20041;-81
2022/07/01 09:33:15;;;;;;;2.15;1.27;;;;;;;15.02;74.63;100667.72;5009961;28;20041;-81
2022/07/01 09:35:41;;;;;;;2.90;1.55;;;;;;;15.04;74.75;100652.09;4993429;28;20597;-81
2022/07/01 09:38:10;;;;;;;1.63;1.27;;;;;;;15.08;75.42;100654.19;4993368;28;20494;-83
2022/07/01 09:40:54;;;;;;;2.92;0.98;;;;;;;14.88;76.64;100672.28;5029440;28;20073;-83
2022/07/01 09:43:27;;;;;;;4.63;1.35;;;;;;;14.44;81.09;100666.31;5009455;28;20040;-80
2022/07/01 09:46:06;;;;;;;4.32;1.15;;;;;;;14.15;83.81;100680.97;5011717;28;20045;-82
2022/07/01 09:48:32;;;;;;;1.67;1.20;;;;;;;13.93;88.33;100676.72;4985790;28;20048;-81
2022/07/01 09:50:59;;;;;;;2.15;1.33;;;;;;;13.79;91.65;100665.03;4995651;28;20065;-80
2022/07/01 09:53:24;;;;;;;2.75;1.30;;;;;;;14.00;92.98;100672.19;5025818;28;20037;-81
2022/07/01 09:55:50;;;;;;;2.42;1.00;;;;;;;14.13;93.11;100674.97;5025789;28;20405;-81
2022/07/01 09:58:16;;;;;;;2.80;1.10;;;;;;;14.19;94.08;100663.34;5030272;28;20044;-81
2022/07/01 10:00:43;;;;;;;3.13;1.50;;;;;;;14.33;93.96;100664.22;5013133;28;20045;-79
2022/07/01 10:03:09;;;;;;;2.88;1.42;;;;;;;14.35;94.85;100664.03;5013855;28;20037;-80
2022/07/01 10:06:03;;;;;;;2.72;1.33;;;;;;;14.29;96.54;100669.19;5016645;28;20030;-81
2022/07/01 10:08:58;;;;;;;4.32;1.85;;;;;;;14.24;97.84;100668.16;5027201;28;20059;-81
2022/07/01 10:11:34;;;;;;;2.20;1.30;;;;;;;14.37;97.91;100670.03;5007218;28;20104;-82
2022/07/01 10:14:04;;;;;;;4.15;1.20;;;;;;;14.53;98.56;100661.63;5021716;28;20033;-79
2022/07/01 10:16:31;;;;;;;3.92;1.30;;;;;;;15.01;97.76;100661.47;5015373;28;20061;-80
2022/07/01 10:18:57;;;;;;;2.67;1.83;;;;;;;15.52;97.39;100660.81;5013053;28;20152;-80
2022/07/01 10:21:30;;;;;;;2.47;1.70;;;;;;;16.30;94.70;100645.59;5003345;28;20117;-83
2022/07/01 10:24:18;;;;;;;2.75;1.75;;;;;;;16.25;93.58;100640.81;5006538;28;20030;-81
2022/07/01 10:26:46;;;;;;;4.43;2.35;;;;;;;15.60;95.73;100608.28;5007148;28;20045;-81
2022/07/01 10:29:35;;;;;;;3.42;2.10;;;;;;;15.01;100.00;100649.81;4993834;28;20533;-81
2022/07/01 10:32:04;;;;;;;3.67;2.47;;;;;;;14.46;100.00;100653.44;5024033;28;20040;-80
2022/07/01 10:34:38;;;;;;;5.45;2.15;;;;;;;14.12;100.00;100631.88;5027123;28;20044;-80
2022/07/01 10:37:09;;;;;;;2.15;1.77;;;;;;;13.88;100.00;100642.19;4980870;28;20034;-81
2022/07/01 10:39:53;;;;;;;4.43;1.50;;;;;;;13.53;100.00;100638.66;4990495;28;20033;-81
2022/07/01 10:42:19;;;;;;;7.20;5.78;;;;;;;13.37;100.00;100645.22;5001725;28;20037;-80
2022/07/01 10:45:08;;;;;;;7.93;3.63;;;;;;;13.33;100.00;100638.53;5001332;28;20046;-81
2022/07/01 10:47:34;;;;;;;5.28;3.03;;;;;;;13.35;100.00;100625.66;5035924;28;20087;-81
2022/07/01 10:50:18;;;;;;;3.33;2.50;;;;;;;13.61;100.00;100627.69;5024346;28;20115;-82
2022/07/01 10:53:04;;;;;;;2.53;1.55;;;;;;;13.69;100.00;100618.59;5009246;28;20029;-80
2022/07/01 10:55:40;;;;;;;2.13;1.40;;;;;;;13.69;100.00;100616.72;5012209;28;20026;-80
2022/07/01 10:58:06;;;;;;;2.80;1.77;;;;;;;13.28;100.00;100597.78;5002116;28;20057;-80
2022/07/01 11:00:34;;;;;;;2.00;1.40;;;;;;;13.15;100.00;100607.44;5003175;28;20033;-80
2022/07/01 11:03:12;;;;;;;1.77;1.15;;;;;;;13.12;100.00;100605.09;5008329;28;20025;-82
2022/07/01 11:05:38;;;;;;;1.88;1.45;;;;;;;13.15;100.00;100610.13;4991416;28;20380;-79
2022/07/01 11:08:07;;;;;;;3.20;1.45;;;;;;;13.05;100.00;100593.44;5017026;28;20200;-80
2022/07/01 11:10:33;;;;;;;1.75;1.33;;;;;;;13.11;100.00;100613.41;5017078;28;20038;-78
2022/07/01 11:13:00;;;;;;;2.17;1.50;;;;;;;13.09;100.00;100612.75;5023864;28;20095;-81
2022/07/01 11:15:28;;;;;;;3.15;1.98;;;;;;;13.09;100.00;100604.66;5008417;28;20686;-81
2022/07/01 11:17:56;;;;;;;8.27;4.22;;;;;;;13.16;100.00;100603.69;5005980;28;20045;-79
2022/07/01 11:20:23;;;;;;;5.72;2.72;;;;;;;13.32;100.00;100605.28;5016854;28;20022;-80
2022/07/01 11:22:49;;;;;;;4.85;2.88;;;;;;;13.44;100.00;100593.91;4986554;28;20132;-79
2022/07/01 11:25:17;;;;;;;7.03;3.95;;;;;;;13.55;100.00;100594.22;4990961;28;20041;-79
2022/07/01 11:27:46;;;;;;;5.43;4.20;;;;;;;13.43;100.00;100582.28;5016026;28;20061;-79
2022/07/01 11:30:13;;;;;;;2.72;1.92;;;;;;;13.15;100.00;100598.47;5021606;28;20036;-79
2022/07/01 11:32:42;;;;;;;0.73;0.60;;;;;;;12.93;100.00;100592.28;5030566;28;20125;-80
2022/07/01 11:40:48;;;;;;;0.73;0.65;;;;;;;13.47;100.00;100594.38;5021125;28;20112;-79